sensor_id;sensor_type;location;lat;lon;timestamp;P1;durP1;ratioP1;P2;durP2;ratioP2
58208;SDS011;44006;52.028;4.696;2023-07-13T00:02:25;20.23;;;4.38;;
58208;SDS011;44006;52.028;4.696;2023-07-13T00:04:51;23.15;;;4.20;;
58208;SDS011;44006;52.028;4.696;2023-07-13T00:07:17;15.23;;;3.60;;
58208;SDS011;44006;52.028;4.696;2023-07-13T00:09:45;17.13;;;4.03;;
58208;SDS011;44006;52.028;4.696;2023-07-13T00:12:21;18.20;;;4.30;;
58208;SDS011;44006;52.028;4.696;2023-07-13T00:14:46;19.50;;;4.00;;
58208;SDS011;44006;52.028;4.696;2023-07-13T00:17:12;16.67;;;3.83;;
58208;SDS011;44006;52.028;4.696;2023-07-13T00:19:39;18.80;;;3.85;;
58208;SDS011;44006;52.028;4.696;2023-07-13T00:22:04;18.05;;;4.57;;
58208;SDS011;44006;52.028;4.696;2023-07-13T00:24:29;20.80;;;4.53;;
58208;SDS011;44006;52.028;4.696;2023-07-13T00:26:55;20.87;;;3.33;;
58208;SDS011;44006;52.028;4.696;2023-07-13T00:29:20;20.65;;;5.30;;
58208;SDS011;44006;52.028;4.696;2023-07-13T00:31:46;15.88;;;3.28;;
58208;SDS011;44006;52.028;4.696;2023-07-13T00:34:11;15.93;;;3.55;;
58208;SDS011;44006;52.028;4.696;2023-07-13T00:36:36;17.17;;;3.58;;
58208;SDS011;44006;52.028;4.696;2023-07-13T00:39:02;14.98;;;3.55;;
58208;SDS011;44006;52.028;4.696;2023-07-13T00:41:29;21.23;;;3.70;;
58208;SDS011;44006;52.028;4.696;2023-07-13T00:43:54;14.48;;;3.30;;
58208;SDS011;44006;52.028;4.696;2023-07-13T00:46:24;16.17;;;3.67;;
58208;SDS011;44006;52.028;4.696;2023-07-13T00:48:50;19.90;;;3.80;;
58208;SDS011;44006;52.028;4.696;2023-07-13T00:51:16;17.45;;;3.65;;
58208;SDS011;44006;52.028;4.696;2023-07-13T00:53:42;12.88;;;3.08;;
58208;SDS011;44006;52.028;4.696;2023-07-13T00:56:09;16.35;;;3.92;;
58208;SDS011;44006;52.028;4.696;2023-07-13T00:58:34;19.08;;;3.75;;
58208;SDS011;44006;52.028;4.696;2023-07-13T01:01:00;13.80;;;3.63;;
58208;SDS011;44006;52.028;4.696;2023-07-13T01:03:25;13.27;;;3.45;;
58208;SDS011;44006;52.028;4.696;2023-07-13T01:05:50;16.33;;;3.88;;
58208;SDS011;44006;52.028;4.696;2023-07-13T01:08:18;20.40;;;3.55;;
58208;SDS011;44006;52.028;4.696;2023-07-13T01:10:50;22.43;;;3.47;;
58208;SDS011;44006;52.028;4.696;2023-07-13T01:13:16;19.40;;;3.55;;
58208;SDS011;44006;52.028;4.696;2023-07-13T01:15:44;16.70;;;3.43;;
58208;SDS011;44006;52.028;4.696;2023-07-13T01:18:11;15.23;;;3.28;;
58208;SDS011;44006;52.028;4.696;2023-07-13T01:23:40;14.73;;;4.03;;
58208;SDS011;44006;52.028;4.696;2023-07-13T01:26:05;14.90;;;3.27;;
58208;SDS011;44006;52.028;4.696;2023-07-13T01:28:30;15.53;;;4.00;;
58208;SDS011;44006;52.028;4.696;2023-07-13T01:30:56;14.02;;;3.30;;
58208;SDS011;44006;52.028;4.696;2023-07-13T01:33:22;16.48;;;3.42;;
58208;SDS011;44006;52.028;4.696;2023-07-13T01:35:48;18.17;;;3.67;;
58208;SDS011;44006;52.028;4.696;2023-07-13T01:38:14;15.85;;;3.17;;
58208;SDS011;44006;52.028;4.696;2023-07-13T01:40:39;13.13;;;3.38;;
58208;SDS011;44006;52.028;4.696;2023-07-13T01:43:05;12.70;;;3.60;;
58208;SDS011;44006;52.028;4.696;2023-07-13T01:45:30;13.95;;;3.30;;
58208;SDS011;44006;52.028;4.696;2023-07-13T01:47:56;12.85;;;2.70;;
58208;SDS011;44006;52.028;4.696;2023-07-13T01:50:21;17.83;;;3.67;;
58208;SDS011;44006;52.028;4.696;2023-07-13T01:52:46;20.98;;;4.13;;
58208;SDS011;44006;52.028;4.696;2023-07-13T01:55:11;14.35;;;3.05;;
58208;SDS011;44006;52.028;4.696;2023-07-13T01:57:36;15.90;;;3.33;;
58208;SDS011;44006;52.028;4.696;2023-07-13T02:00:06;13.77;;;3.03;;
58208;SDS011;44006;52.028;4.696;2023-07-13T02:02:31;14.65;;;2.83;;
58208;SDS011;44006;52.028;4.696;2023-07-13T02:04:57;9.68;;;2.53;;
58208;SDS011;44006;52.028;4.696;2023-07-13T02:07:22;10.00;;;2.47;;
58208;SDS011;44006;52.028;4.696;2023-07-13T02:09:47;13.57;;;2.40;;
58208;SDS011;44006;52.028;4.696;2023-07-13T02:12:12;9.45;;;1.90;;
58208;SDS011;44006;52.028;4.696;2023-07-13T02:14:37;10.20;;;2.67;;
58208;SDS011;44006;52.028;4.696;2023-07-13T02:17:03;7.28;;;2.10;;
58208;SDS011;44006;52.028;4.696;2023-07-13T02:19:28;10.32;;;1.92;;
58208;SDS011;44006;52.028;4.696;2023-07-13T02:21:55;9.10;;;2.33;;
58208;SDS011;44006;52.028;4.696;2023-07-13T02:24:20;9.30;;;2.35;;
58208;SDS011;44006;52.028;4.696;2023-07-13T02:26:46;11.60;;;2.33;;
58208;SDS011;44006;52.028;4.696;2023-07-13T02:29:11;10.32;;;1.88;;
58208;SDS011;44006;52.028;4.696;2023-07-13T02:31:36;7.23;;;2.10;;
58208;SDS011;44006;52.028;4.696;2023-07-13T02:34:02;10.13;;;2.17;;
58208;SDS011;44006;52.028;4.696;2023-07-13T02:36:27;7.78;;;1.77;;
58208;SDS011;44006;52.028;4.696;2023-07-13T02:38:53;8.13;;;1.85;;
58208;SDS011;44006;52.028;4.696;2023-07-13T02:41:18;5.63;;;1.57;;
58208;SDS011;44006;52.028;4.696;2023-07-13T02:43:43;7.82;;;2.08;;
58208;SDS011;44006;52.028;4.696;2023-07-13T02:46:08;10.80;;;1.90;;
58208;SDS011;44006;52.028;4.696;2023-07-13T02:48:34;7.70;;;1.80;;
58208;SDS011;44006;52.028;4.696;2023-07-13T02:50:59;9.13;;;2.08;;
58208;SDS011;44006;52.028;4.696;2023-07-13T02:53:24;6.90;;;1.87;;
58208;SDS011;44006;52.028;4.696;2023-07-13T02:55:50;8.90;;;1.98;;
58208;SDS011;44006;52.028;4.696;2023-07-13T02:58:15;7.28;;;1.95;;
58208;SDS011;44006;52.028;4.696;2023-07-13T03:00:42;10.15;;;2.25;;
58208;SDS011;44006;52.028;4.696;2023-07-13T03:03:07;8.82;;;2.30;;
58208;SDS011;44006;52.028;4.696;2023-07-13T03:05:32;12.73;;;2.50;;
58208;SDS011;44006;52.028;4.696;2023-07-13T03:07:57;15.10;;;2.57;;
58208;SDS011;44006;52.028;4.696;2023-07-13T03:10:23;12.27;;;2.38;;
58208;SDS011;44006;52.028;4.696;2023-07-13T03:12:48;8.88;;;2.17;;
58208;SDS011;44006;52.028;4.696;2023-07-13T03:15:14;9.95;;;2.70;;
58208;SDS011;44006;52.028;4.696;2023-07-13T03:17:39;13.32;;;2.22;;
58208;SDS011;44006;52.028;4.696;2023-07-13T03:20:05;11.85;;;2.72;;
58208;SDS011;44006;52.028;4.696;2023-07-13T03:22:32;12.27;;;2.97;;
58208;SDS011;44006;52.028;4.696;2023-07-13T03:24:57;13.50;;;2.70;;
58208;SDS011;44006;52.028;4.696;2023-07-13T03:27:22;14.30;;;2.72;;
58208;SDS011;44006;52.028;4.696;2023-07-13T03:29:47;9.02;;;3.42;;
58208;SDS011;44006;52.028;4.696;2023-07-13T03:32:13;11.70;;;2.65;;
58208;SDS011;44006;52.028;4.696;2023-07-13T03:34:38;15.73;;;4.47;;
58208;SDS011;44006;52.028;4.696;2023-07-13T03:37:03;12.63;;;2.95;;
58208;SDS011;44006;52.028;4.696;2023-07-13T03:39:29;15.85;;;3.53;;
58208;SDS011;44006;52.028;4.696;2023-07-13T03:41:54;10.53;;;3.20;;
58208;SDS011;44006;52.028;4.696;2023-07-13T03:44:19;10.57;;;3.33;;
58208;SDS011;44006;52.028;4.696;2023-07-13T03:46:46;13.95;;;3.35;;
58208;SDS011;44006;52.028;4.696;2023-07-13T03:49:11;14.48;;;3.60;;
58208;SDS011;44006;52.028;4.696;2023-07-13T03:51:36;12.73;;;3.10;;
58208;SDS011;44006;52.028;4.696;2023-07-13T03:54:02;11.95;;;3.20;;
58208;SDS011;44006;52.028;4.696;2023-07-13T03:56:28;10.82;;;3.20;;
58208;SDS011;44006;52.028;4.696;2023-07-13T03:58:53;17.77;;;3.30;;
58208;SDS011;44006;52.028;4.696;2023-07-13T04:01:18;14.57;;;2.87;;
58208;SDS011;44006;52.028;4.696;2023-07-13T04:03:44;11.60;;;3.28;;
58208;SDS011;44006;52.028;4.696;2023-07-13T04:06:29;14.27;;;3.42;;
58208;SDS011;44006;52.028;4.696;2023-07-13T04:08:56;15.52;;;3.20;;
58208;SDS011;44006;52.028;4.696;2023-07-13T04:11:22;15.38;;;3.45;;
58208;SDS011;44006;52.028;4.696;2023-07-13T04:13:48;14.07;;;3.22;;
58208;SDS011;44006;52.028;4.696;2023-07-13T04:16:14;16.77;;;3.30;;
58208;SDS011;44006;52.028;4.696;2023-07-13T04:18:40;14.60;;;3.53;;
58208;SDS011;44006;52.028;4.696;2023-07-13T04:21:06;12.95;;;3.15;;
58208;SDS011;44006;52.028;4.696;2023-07-13T04:23:31;16.65;;;3.83;;
58208;SDS011;44006;52.028;4.696;2023-07-13T04:25:56;20.77;;;4.03;;
58208;SDS011;44006;52.028;4.696;2023-07-13T04:28:22;22.57;;;3.87;;
58208;SDS011;44006;52.028;4.696;2023-07-13T04:30:48;16.25;;;4.07;;
58208;SDS011;44006;52.028;4.696;2023-07-13T04:33:13;14.35;;;4.25;;
58208;SDS011;44006;52.028;4.696;2023-07-13T04:35:39;18.55;;;4.03;;
58208;SDS011;44006;52.028;4.696;2023-07-13T04:38:04;17.60;;;4.63;;
58208;SDS011;44006;52.028;4.696;2023-07-13T04:40:29;20.98;;;4.22;;
58208;SDS011;44006;52.028;4.696;2023-07-13T04:42:55;15.00;;;4.18;;
58208;SDS011;44006;52.028;4.696;2023-07-13T04:45:21;18.17;;;4.38;;
58208;SDS011;44006;52.028;4.696;2023-07-13T04:47:46;16.50;;;4.10;;
58208;SDS011;44006;52.028;4.696;2023-07-13T04:50:12;22.27;;;4.18;;
58208;SDS011;44006;52.028;4.696;2023-07-13T04:52:40;19.55;;;4.70;;
58208;SDS011;44006;52.028;4.696;2023-07-13T04:55:08;18.23;;;4.50;;
58208;SDS011;44006;52.028;4.696;2023-07-13T04:57:34;20.83;;;4.78;;
58208;SDS011;44006;52.028;4.696;2023-07-13T05:00:02;17.25;;;4.38;;
58208;SDS011;44006;52.028;4.696;2023-07-13T05:02:31;16.55;;;4.32;;
58208;SDS011;44006;52.028;4.696;2023-07-13T05:04:57;17.92;;;4.60;;
58208;SDS011;44006;52.028;4.696;2023-07-13T05:07:22;16.40;;;4.38;;
58208;SDS011;44006;52.028;4.696;2023-07-13T05:09:48;17.53;;;4.10;;
58208;SDS011;44006;52.028;4.696;2023-07-13T05:12:13;20.15;;;4.00;;
58208;SDS011;44006;52.028;4.696;2023-07-13T05:14:38;23.03;;;4.73;;
58208;SDS011;44006;52.028;4.696;2023-07-13T05:17:03;10.95;;;3.40;;
58208;SDS011;44006;52.028;4.696;2023-07-13T05:19:29;20.75;;;4.20;;
58208;SDS011;44006;52.028;4.696;2023-07-13T05:21:54;20.63;;;4.40;;
58208;SDS011;44006;52.028;4.696;2023-07-13T05:24:20;16.70;;;3.67;;
58208;SDS011;44006;52.028;4.696;2023-07-13T05:26:46;19.43;;;5.47;;
58208;SDS011;44006;52.028;4.696;2023-07-13T05:29:11;22.27;;;4.75;;
58208;SDS011;44006;52.028;4.696;2023-07-13T05:31:36;14.45;;;4.38;;
58208;SDS011;44006;52.028;4.696;2023-07-13T05:34:02;20.52;;;4.65;;
58208;SDS011;44006;52.028;4.696;2023-07-13T05:36:27;17.42;;;4.30;;
58208;SDS011;44006;52.028;4.696;2023-07-13T05:38:52;21.08;;;5.00;;
58208;SDS011;44006;52.028;4.696;2023-07-13T05:41:17;18.48;;;5.15;;
58208;SDS011;44006;52.028;4.696;2023-07-13T05:43:43;16.67;;;4.80;;
58208;SDS011;44006;52.028;4.696;2023-07-13T05:46:08;20.57;;;4.77;;
58208;SDS011;44006;52.028;4.696;2023-07-13T05:48:33;16.50;;;4.30;;
58208;SDS011;44006;52.028;4.696;2023-07-13T05:50:58;24.57;;;4.70;;
58208;SDS011;44006;52.028;4.696;2023-07-13T05:53:23;14.05;;;4.25;;
58208;SDS011;44006;52.028;4.696;2023-07-13T05:55:49;16.00;;;3.93;;
58208;SDS011;44006;52.028;4.696;2023-07-13T05:58:18;17.35;;;4.00;;
58208;SDS011;44006;52.028;4.696;2023-07-13T06:00:43;20.42;;;4.93;;
58208;SDS011;44006;52.028;4.696;2023-07-13T06:03:08;15.77;;;3.78;;
58208;SDS011;44006;52.028;4.696;2023-07-13T06:05:34;16.00;;;3.97;;
58208;SDS011;44006;52.028;4.696;2023-07-13T06:07:59;18.88;;;4.22;;
58208;SDS011;44006;52.028;4.696;2023-07-13T06:10:25;15.65;;;4.68;;
58208;SDS011;44006;52.028;4.696;2023-07-13T06:12:50;19.77;;;4.75;;
58208;SDS011;44006;52.028;4.696;2023-07-13T06:15:16;17.13;;;4.70;;
58208;SDS011;44006;52.028;4.696;2023-07-13T06:17:41;16.75;;;4.55;;
58208;SDS011;44006;52.028;4.696;2023-07-13T06:20:06;18.20;;;4.77;;
58208;SDS011;44006;52.028;4.696;2023-07-13T06:22:32;16.85;;;4.88;;
58208;SDS011;44006;52.028;4.696;2023-07-13T06:24:57;18.80;;;5.47;;
58208;SDS011;44006;52.028;4.696;2023-07-13T06:27:22;15.87;;;4.60;;
58208;SDS011;44006;52.028;4.696;2023-07-13T06:29:48;17.77;;;5.27;;
58208;SDS011;44006;52.028;4.696;2023-07-13T06:32:13;9.57;;;2.83;;
58208;SDS011;44006;52.028;4.696;2023-07-13T06:34:39;10.10;;;3.30;;
58208;SDS011;44006;52.028;4.696;2023-07-13T06:37:04;11.70;;;3.10;;
58208;SDS011;44006;52.028;4.696;2023-07-13T06:39:29;7.20;;;3.13;;
58208;SDS011;44006;52.028;4.696;2023-07-13T06:41:54;9.15;;;2.97;;
58208;SDS011;44006;52.028;4.696;2023-07-13T06:44:20;9.13;;;2.97;;
58208;SDS011;44006;52.028;4.696;2023-07-13T06:46:46;6.57;;;2.30;;
58208;SDS011;44006;52.028;4.696;2023-07-13T06:49:11;4.10;;;2.75;;
58208;SDS011;44006;52.028;4.696;2023-07-13T06:51:37;7.00;;;2.80;;
58208;SDS011;44006;52.028;4.696;2023-07-13T06:54:03;5.35;;;2.33;;
58208;SDS011;44006;52.028;4.696;2023-07-13T06:56:29;5.53;;;2.38;;
58208;SDS011;44006;52.028;4.696;2023-07-13T06:58:54;7.93;;;2.55;;
58208;SDS011;44006;52.028;4.696;2023-07-13T07:01:19;7.95;;;2.60;;
58208;SDS011;44006;52.028;4.696;2023-07-13T07:03:44;5.65;;;2.17;;
58208;SDS011;44006;52.028;4.696;2023-07-13T07:06:15;9.90;;;2.67;;
58208;SDS011;44006;52.028;4.696;2023-07-13T07:08:40;6.15;;;2.38;;
58208;SDS011;44006;52.028;4.696;2023-07-13T07:11:08;5.28;;;2.40;;
58208;SDS011;44006;52.028;4.696;2023-07-13T07:13:33;5.30;;;2.10;;
58208;SDS011;44006;52.028;4.696;2023-07-13T07:15:58;4.87;;;2.20;;
58208;SDS011;44006;52.028;4.696;2023-07-13T07:18:25;8.68;;;2.33;;
58208;SDS011;44006;52.028;4.696;2023-07-13T07:20:51;8.30;;;2.90;;
58208;SDS011;44006;52.028;4.696;2023-07-13T07:23:16;7.13;;;2.75;;
58208;SDS011;44006;52.028;4.696;2023-07-13T07:25:43;5.37;;;2.37;;
58208;SDS011;44006;52.028;4.696;2023-07-13T07:28:08;8.25;;;3.08;;
58208;SDS011;44006;52.028;4.696;2023-07-13T07:30:33;8.65;;;3.10;;
58208;SDS011;44006;52.028;4.696;2023-07-13T07:32:58;9.40;;;3.88;;
58208;SDS011;44006;52.028;4.696;2023-07-13T07:35:24;9.10;;;3.33;;
58208;SDS011;44006;52.028;4.696;2023-07-13T07:37:49;11.10;;;3.13;;
58208;SDS011;44006;52.028;4.696;2023-07-13T07:40:16;10.32;;;3.40;;
58208;SDS011;44006;52.028;4.696;2023-07-13T07:42:41;6.28;;;3.63;;
58208;SDS011;44006;52.028;4.696;2023-07-13T07:45:06;10.98;;;3.72;;
58208;SDS011;44006;52.028;4.696;2023-07-13T07:47:31;12.32;;;3.72;;
58208;SDS011;44006;52.028;4.696;2023-07-13T07:49:57;13.70;;;4.50;;
58208;SDS011;44006;52.028;4.696;2023-07-13T07:52:22;9.18;;;4.20;;
58208;SDS011;44006;52.028;4.696;2023-07-13T07:54:47;17.35;;;4.97;;
58208;SDS011;44006;52.028;4.696;2023-07-13T07:57:13;12.45;;;3.90;;
58208;SDS011;44006;52.028;4.696;2023-07-13T07:59:38;10.37;;;3.60;;
58208;SDS011;44006;52.028;4.696;2023-07-13T08:02:03;11.55;;;2.92;;
58208;SDS011;44006;52.028;4.696;2023-07-13T08:04:28;8.25;;;2.63;;
58208;SDS011;44006;52.028;4.696;2023-07-13T08:06:54;8.93;;;3.30;;
58208;SDS011;44006;52.028;4.696;2023-07-13T08:09:22;8.60;;;2.92;;
58208;SDS011;44006;52.028;4.696;2023-07-13T08:11:47;7.43;;;3.35;;
58208;SDS011;44006;52.028;4.696;2023-07-13T08:14:12;10.03;;;3.30;;
58208;SDS011;44006;52.028;4.696;2023-07-13T08:16:38;5.97;;;2.60;;
58208;SDS011;44006;52.028;4.696;2023-07-13T08:19:07;10.60;;;3.20;;
58208;SDS011;44006;52.028;4.696;2023-07-13T08:21:32;7.30;;;3.10;;
58208;SDS011;44006;52.028;4.696;2023-07-13T08:23:57;8.73;;;2.92;;
58208;SDS011;44006;52.028;4.696;2023-07-13T08:26:23;8.32;;;3.50;;
58208;SDS011;44006;52.028;4.696;2023-07-13T08:28:48;9.80;;;3.30;;
58208;SDS011;44006;52.028;4.696;2023-07-13T08:31:13;10.07;;;4.20;;
58208;SDS011;44006;52.028;4.696;2023-07-13T08:33:39;12.00;;;3.88;;
58208;SDS011;44006;52.028;4.696;2023-07-13T08:36:06;9.35;;;3.45;;
58208;SDS011;44006;52.028;4.696;2023-07-13T08:38:31;11.68;;;3.95;;
58208;SDS011;44006;52.028;4.696;2023-07-13T08:40:56;11.10;;;3.72;;
58208;SDS011;44006;52.028;4.696;2023-07-13T08:43:26;10.55;;;3.70;;
58208;SDS011;44006;52.028;4.696;2023-07-13T08:45:54;9.85;;;3.25;;
58208;SDS011;44006;52.028;4.696;2023-07-13T08:48:39;11.77;;;3.40;;
58208;SDS011;44006;52.028;4.696;2023-07-13T08:53:43;18.60;;;4.97;;
58208;SDS011;44006;52.028;4.696;2023-07-13T08:56:11;8.15;;;3.92;;
58208;SDS011;44006;52.028;4.696;2023-07-13T08:58:38;13.52;;;4.10;;
58208;SDS011;44006;52.028;4.696;2023-07-13T09:06:10;9.10;;;4.25;;
58208;SDS011;44006;52.028;4.696;2023-07-13T09:14:06;14.07;;;4.60;;
58208;SDS011;44006;52.028;4.696;2023-07-13T09:16:38;10.85;;;4.30;;
58208;SDS011;44006;52.028;4.696;2023-07-13T09:19:05;14.07;;;4.95;;
58208;SDS011;44006;52.028;4.696;2023-07-13T09:21:32;13.20;;;4.60;;
58208;SDS011;44006;52.028;4.696;2023-07-13T09:24:09;12.60;;;4.97;;
58208;SDS011;44006;52.028;4.696;2023-07-13T09:26:39;9.05;;;4.28;;
58208;SDS011;44006;52.028;4.696;2023-07-13T09:29:10;13.55;;;4.43;;
58208;SDS011;44006;52.028;4.696;2023-07-13T09:31:45;11.32;;;4.43;;
58208;SDS011;44006;52.028;4.696;2023-07-13T09:34:12;14.73;;;5.10;;
58208;SDS011;44006;52.028;4.696;2023-07-13T09:36:37;14.07;;;4.50;;
58208;SDS011;44006;52.028;4.696;2023-07-13T09:46:27;12.48;;;5.28;;
58208;SDS011;44006;52.028;4.696;2023-07-13T09:48:52;10.17;;;4.03;;
58208;SDS011;44006;52.028;4.696;2023-07-13T09:51:17;8.97;;;3.47;;
58208;SDS011;44006;52.028;4.696;2023-07-13T09:53:47;8.45;;;3.58;;
58208;SDS011;44006;52.028;4.696;2023-07-13T09:56:23;9.43;;;3.30;;
58208;SDS011;44006;52.028;4.696;2023-07-13T09:58:49;8.82;;;3.83;;
58208;SDS011;44006;52.028;4.696;2023-07-13T10:01:14;7.18;;;3.72;;
58208;SDS011;44006;52.028;4.696;2023-07-13T10:03:42;10.10;;;4.10;;
58208;SDS011;44006;52.028;4.696;2023-07-13T10:06:17;9.63;;;3.60;;
58208;SDS011;44006;52.028;4.696;2023-07-13T10:08:44;9.18;;;4.05;;
58208;SDS011;44006;52.028;4.696;2023-07-13T10:11:11;10.27;;;4.10;;
58208;SDS011;44006;52.028;4.696;2023-07-13T10:13:46;6.82;;;3.58;;
58208;SDS011;44006;52.028;4.696;2023-07-13T10:16:14;9.32;;;4.53;;
58208;SDS011;44006;52.028;4.696;2023-07-13T10:18:50;10.32;;;4.40;;
58208;SDS011;44006;52.028;4.696;2023-07-13T10:21:17;9.32;;;4.32;;
58208;SDS011;44006;52.028;4.696;2023-07-13T10:23:43;13.02;;;5.40;;
58208;SDS011;44006;52.028;4.696;2023-07-13T10:26:12;11.10;;;5.13;;
58208;SDS011;44006;52.028;4.696;2023-07-13T10:28:39;15.13;;;5.78;;
58208;SDS011;44006;52.028;4.696;2023-07-13T10:31:08;12.68;;;5.00;;
58208;SDS011;44006;52.028;4.696;2023-07-13T10:33:36;11.02;;;4.70;;
58208;SDS011;44006;52.028;4.696;2023-07-13T10:36:07;13.82;;;5.30;;
58208;SDS011;44006;52.028;4.696;2023-07-13T10:38:38;10.70;;;4.28;;
58208;SDS011;44006;52.028;4.696;2023-07-13T10:41:04;9.38;;;4.18;;
58208;SDS011;44006;52.028;4.696;2023-07-13T10:43:35;9.20;;;4.38;;
58208;SDS011;44006;52.028;4.696;2023-07-13T10:46:05;9.70;;;3.75;;
58208;SDS011;44006;52.028;4.696;2023-07-13T10:48:30;9.15;;;3.67;;
58208;SDS011;44006;52.028;4.696;2023-07-13T10:50:59;11.60;;;3.25;;
58208;SDS011;44006;52.028;4.696;2023-07-13T10:53:31;8.23;;;3.55;;
58208;SDS011;44006;52.028;4.696;2023-07-13T10:56:03;7.65;;;3.78;;
58208;SDS011;44006;52.028;4.696;2023-07-13T10:58:38;6.72;;;4.07;;
58208;SDS011;44006;52.028;4.696;2023-07-13T11:04:15;13.77;;;3.88;;
58208;SDS011;44006;52.028;4.696;2023-07-13T11:08:55;10.57;;;3.97;;
58208;SDS011;44006;52.028;4.696;2023-07-13T11:18:45;6.72;;;3.13;;
58208;SDS011;44006;52.028;4.696;2023-07-13T11:23:41;8.07;;;4.00;;
58208;SDS011;44006;52.028;4.696;2023-07-13T11:26:37;7.47;;;3.90;;
58208;SDS011;44006;52.028;4.696;2023-07-13T11:28:52;7.45;;;3.33;;
58208;SDS011;44006;52.028;4.696;2023-07-13T11:31:18;7.53;;;3.53;;
58208;SDS011;44006;52.028;4.696;2023-07-13T11:33:53;9.02;;;3.85;;
58208;SDS011;44006;52.028;4.696;2023-07-13T11:36:21;8.13;;;3.33;;
58208;SDS011;44006;52.028;4.696;2023-07-13T11:38:55;8.27;;;3.45;;
58208;SDS011;44006;52.028;4.696;2023-07-13T11:41:25;9.13;;;3.45;;
58208;SDS011;44006;52.028;4.696;2023-07-13T11:43:55;6.63;;;2.92;;
58208;SDS011;44006;52.028;4.696;2023-07-13T11:46:25;6.60;;;3.17;;
58208;SDS011;44006;52.028;4.696;2023-07-13T11:48:51;7.15;;;3.40;;
58208;SDS011;44006;52.028;4.696;2023-07-13T11:51:22;7.97;;;3.08;;
58208;SDS011;44006;52.028;4.696;2023-07-13T11:53:48;6.65;;;3.20;;
58208;SDS011;44006;52.028;4.696;2023-07-13T11:56:14;8.13;;;3.25;;
58208;SDS011;44006;52.028;4.696;2023-07-13T11:58:40;7.03;;;3.00;;
58208;SDS011;44006;52.028;4.696;2023-07-13T12:01:05;9.65;;;3.13;;
58208;SDS011;44006;52.028;4.696;2023-07-13T12:03:32;6.75;;;3.05;;
58208;SDS011;44006;52.028;4.696;2023-07-13T12:06:02;7.95;;;3.70;;
58208;SDS011;44006;52.028;4.696;2023-07-13T12:08:30;5.28;;;2.65;;
58208;SDS011;44006;52.028;4.696;2023-07-13T12:10:59;7.82;;;2.90;;
58208;SDS011;44006;52.028;4.696;2023-07-13T12:13:26;5.15;;;2.70;;
58208;SDS011;44006;52.028;4.696;2023-07-13T12:15:51;5.43;;;3.38;;
58208;SDS011;44006;52.028;4.696;2023-07-13T12:18:19;7.13;;;2.97;;
58208;SDS011;44006;52.028;4.696;2023-07-13T12:20:45;5.78;;;2.40;;
58208;SDS011;44006;52.028;4.696;2023-07-13T12:23:21;5.40;;;2.42;;
58208;SDS011;44006;52.028;4.696;2023-07-13T12:25:47;8.27;;;3.03;;
58208;SDS011;44006;52.028;4.696;2023-07-13T12:28:28;5.33;;;2.20;;
58208;SDS011;44006;52.028;4.696;2023-07-13T12:31:05;7.25;;;2.53;;
58208;SDS011;44006;52.028;4.696;2023-07-13T12:33:31;5.82;;;2.42;;
58208;SDS011;44006;52.028;4.696;2023-07-13T12:35:57;7.50;;;2.67;;
58208;SDS011;44006;52.028;4.696;2023-07-13T12:38:24;6.68;;;2.63;;
58208;SDS011;44006;52.028;4.696;2023-07-13T12:40:50;5.78;;;2.60;;
58208;SDS011;44006;52.028;4.696;2023-07-13T12:43:16;5.05;;;2.63;;
58208;SDS011;44006;52.028;4.696;2023-07-13T12:48:40;8.18;;;3.22;;
58208;SDS011;44006;52.028;4.696;2023-07-13T12:51:08;5.95;;;3.28;;
58208;SDS011;44006;52.028;4.696;2023-07-13T12:53:35;8.30;;;3.03;;
58208;SDS011;44006;52.028;4.696;2023-07-13T12:56:04;5.75;;;2.80;;
58208;SDS011;44006;52.028;4.696;2023-07-13T12:58:34;6.03;;;2.83;;
58208;SDS011;44006;52.028;4.696;2023-07-13T13:03:30;8.88;;;2.90;;
58208;SDS011;44006;52.028;4.696;2023-07-13T13:06:06;9.10;;;2.33;;
58208;SDS011;44006;52.028;4.696;2023-07-13T13:08:36;4.47;;;2.15;;
58208;SDS011;44006;52.028;4.696;2023-07-13T13:11:02;7.85;;;2.60;;
58208;SDS011;44006;52.028;4.696;2023-07-13T13:13:27;8.73;;;2.20;;
58208;SDS011;44006;52.028;4.696;2023-07-13T13:15:53;4.38;;;2.35;;
58208;SDS011;44006;52.028;4.696;2023-07-13T13:18:19;7.40;;;2.63;;
58208;SDS011;44006;52.028;4.696;2023-07-13T13:20:45;4.97;;;2.28;;
58208;SDS011;44006;52.028;4.696;2023-07-13T13:23:15;6.15;;;2.20;;
58208;SDS011;44006;52.028;4.696;2023-07-13T13:25:42;6.50;;;2.50;;
58208;SDS011;44006;52.028;4.696;2023-07-13T13:28:12;5.88;;;2.20;;
58208;SDS011;44006;52.028;4.696;2023-07-13T13:30:39;7.22;;;2.53;;
58208;SDS011;44006;52.028;4.696;2023-07-13T13:33:08;5.55;;;2.25;;
58208;SDS011;44006;52.028;4.696;2023-07-13T13:35:34;7.28;;;2.17;;
58208;SDS011;44006;52.028;4.696;2023-07-13T13:37:59;4.20;;;2.50;;
58208;SDS011;44006;52.028;4.696;2023-07-13T13:40:24;5.77;;;1.90;;
58208;SDS011;44006;52.028;4.696;2023-07-13T13:42:49;9.17;;;2.30;;
58208;SDS011;44006;52.028;4.696;2023-07-13T13:45:16;5.55;;;2.20;;
58208;SDS011;44006;52.028;4.696;2023-07-13T13:47:43;5.60;;;1.83;;
58208;SDS011;44006;52.028;4.696;2023-07-13T13:50:15;4.75;;;1.90;;
58208;SDS011;44006;52.028;4.696;2023-07-13T13:52:41;5.18;;;2.10;;
58208;SDS011;44006;52.028;4.696;2023-07-13T13:55:16;3.63;;;1.83;;
58208;SDS011;44006;52.028;4.696;2023-07-13T13:57:41;7.60;;;2.40;;
58208;SDS011;44006;52.028;4.696;2023-07-13T14:00:10;6.10;;;1.98;;
58208;SDS011;44006;52.028;4.696;2023-07-13T14:02:40;5.38;;;2.00;;
58208;SDS011;44006;52.028;4.696;2023-07-13T14:05:06;5.97;;;2.30;;
58208;SDS011;44006;52.028;4.696;2023-07-13T14:07:32;5.70;;;2.38;;
58208;SDS011;44006;52.028;4.696;2023-07-13T14:09:58;6.10;;;2.33;;
58208;SDS011;44006;52.028;4.696;2023-07-13T14:12:24;6.38;;;2.33;;
58208;SDS011;44006;52.028;4.696;2023-07-13T14:14:55;7.03;;;2.00;;
58208;SDS011;44006;52.028;4.696;2023-07-13T14:17:21;4.88;;;2.15;;
58208;SDS011;44006;52.028;4.696;2023-07-13T14:19:48;5.38;;;2.10;;
58208;SDS011;44006;52.028;4.696;2023-07-13T14:22:16;4.80;;;1.90;;
58208;SDS011;44006;52.028;4.696;2023-07-13T14:24:41;5.95;;;2.35;;
58208;SDS011;44006;52.028;4.696;2023-07-13T14:27:07;8.67;;;2.10;;
58208;SDS011;44006;52.028;4.696;2023-07-13T14:29:33;5.28;;;1.90;;
58208;SDS011;44006;52.028;4.696;2023-07-13T14:31:58;4.60;;;1.92;;
58208;SDS011;44006;52.028;4.696;2023-07-13T14:34:24;4.00;;;1.80;;
58208;SDS011;44006;52.028;4.696;2023-07-13T14:36:49;6.80;;;2.13;;
58208;SDS011;44006;52.028;4.696;2023-07-13T14:39:17;6.20;;;1.92;;
58208;SDS011;44006;52.028;4.696;2023-07-13T14:41:43;3.65;;;1.75;;
58208;SDS011;44006;52.028;4.696;2023-07-13T14:44:12;6.15;;;1.98;;
58208;SDS011;44006;52.028;4.696;2023-07-13T14:46:38;4.00;;;1.92;;
58208;SDS011;44006;52.028;4.696;2023-07-13T14:49:04;3.70;;;1.90;;
58208;SDS011;44006;52.028;4.696;2023-07-13T14:51:31;6.43;;;1.92;;
58208;SDS011;44006;52.028;4.696;2023-07-13T14:53:56;3.67;;;1.80;;
58208;SDS011;44006;52.028;4.696;2023-07-13T14:56:21;4.83;;;1.70;;
58208;SDS011;44006;52.028;4.696;2023-07-13T14:58:47;4.50;;;1.90;;
58208;SDS011;44006;52.028;4.696;2023-07-13T15:01:12;3.10;;;1.73;;
58208;SDS011;44006;52.028;4.696;2023-07-13T15:03:41;5.22;;;2.00;;
58208;SDS011;44006;52.028;4.696;2023-07-13T15:06:09;6.57;;;1.65;;
58208;SDS011;44006;52.028;4.696;2023-07-13T15:08:35;5.85;;;2.15;;
58208;SDS011;44006;52.028;4.696;2023-07-13T15:11:00;4.80;;;2.13;;
58208;SDS011;44006;52.028;4.696;2023-07-13T15:13:25;6.43;;;1.80;;
58208;SDS011;44006;52.028;4.696;2023-07-13T15:15:52;3.95;;;1.70;;
58208;SDS011;44006;52.028;4.696;2023-07-13T15:18:19;4.85;;;1.90;;
58208;SDS011;44006;52.028;4.696;2023-07-13T15:20:45;4.38;;;1.83;;
58208;SDS011;44006;52.028;4.696;2023-07-13T15:23:13;3.85;;;1.75;;